createdAt,value
2023-02-15T00:00:06.929Z,2.40
2023-02-15T00:02:33.885Z,2.40
2023-02-15T00:05:03.910Z,2.50
2023-02-15T00:07:31.098Z,2.40
2023-02-15T00:09:58.121Z,2.30
2023-02-15T00:12:25.126Z,2.30
2023-02-15T00:14:55.193Z,2.20
2023-02-15T00:17:22.632Z,2.10
2023-02-15T00:19:49.426Z,2.10
2023-02-15T00:22:17.406Z,2.00
2023-02-15T00:24:44.256Z,2.00
2023-02-15T00:27:11.046Z,2.00
2023-02-15T00:29:38.342Z,1.90
2023-02-15T00:32:05.390Z,1.80
2023-02-15T00:34:32.566Z,1.80
2023-02-15T00:36:59.437Z,1.80
2023-02-15T00:39:28.394Z,1.70
2023-02-15T00:42:00.504Z,1.80
2023-02-15T00:44:27.726Z,1.80
2023-02-15T00:46:57.148Z,1.80
2023-02-15T00:49:24.236Z,1.70
2023-02-15T00:51:51.110Z,1.70
2023-02-15T00:54:18.048Z,1.70
2023-02-15T00:56:45.311Z,1.80
2023-02-15T00:59:12.096Z,1.80
2023-02-15T01:01:39.259Z,1.60
2023-02-15T01:04:06.159Z,1.50
2023-02-15T01:06:33.103Z,1.60
2023-02-15T01:08:59.877Z,1.50
2023-02-15T01:11:26.680Z,1.50
2023-02-15T01:13:56.486Z,1.50
2023-02-15T01:16:25.338Z,1.50
2023-02-15T01:18:52.189Z,1.50
2023-02-15T01:21:22.100Z,1.40
2023-02-15T01:23:51.791Z,1.30
2023-02-15T01:26:21.102Z,1.30
2023-02-15T01:28:48.398Z,1.30
2023-02-15T01:31:18.237Z,1.20
2023-02-15T01:33:46.314Z,1.20
2023-02-15T01:36:13.955Z,1.10
2023-02-15T01:38:41.032Z,1.10
2023-02-15T01:41:28.117Z,1.10
2023-02-15T01:43:56.659Z,1.00
2023-02-15T01:46:36.004Z,1.00
2023-02-15T01:49:10.881Z,1.10
2023-02-15T01:51:40.659Z,1.00
2023-02-15T01:54:25.498Z,1.00
2023-02-15T01:56:53.970Z,1.00
2023-02-15T01:59:24.336Z,1.00
2023-02-15T02:01:55.609Z,1.00
2023-02-15T02:04:36.190Z,0.90
2023-02-15T02:07:04.677Z,0.90
2023-02-15T02:09:32.309Z,0.80
2023-02-15T02:12:02.890Z,0.80
2023-02-15T02:14:30.022Z,0.80
2023-02-15T02:17:10.603Z,0.70
2023-02-15T02:19:59.392Z,0.80
2023-02-15T02:23:09.068Z,0.80
2023-02-15T02:25:45.093Z,0.70
2023-02-15T02:28:11.854Z,0.60
2023-02-15T02:31:09.750Z,0.70
2023-02-15T02:33:49.511Z,0.70
2023-02-15T02:36:35.932Z,0.60
2023-02-15T02:39:24.596Z,0.60
2023-02-15T02:42:08.811Z,0.70
2023-02-15T02:44:44.532Z,0.70
2023-02-15T02:47:41.335Z,0.60
2023-02-15T02:50:23.220Z,0.60
2023-02-15T02:52:53.934Z,0.50
2023-02-15T02:55:30.731Z,0.50
2023-02-15T02:58:21.969Z,0.50
2023-02-15T03:00:48.750Z,0.50
2023-02-15T03:03:32.984Z,0.50
2023-02-15T03:06:06.207Z,0.50
2023-02-15T03:08:44.526Z,0.50
2023-02-15T03:11:13.160Z,0.40
2023-02-15T03:13:45.009Z,0.40
2023-02-15T03:16:29.571Z,0.30
2023-02-15T03:18:59.225Z,0.30
2023-02-15T03:21:32.665Z,0.30
2023-02-15T03:24:07.354Z,0.30
2023-02-15T03:26:37.118Z,0.30
2023-02-15T03:29:06.583Z,0.20
2023-02-15T03:31:38.690Z,0.30
2023-02-15T03:34:10.850Z,0.20
2023-02-15T03:36:57.163Z,0.20
2023-02-15T03:39:50.236Z,0.20
2023-02-15T03:42:34.262Z,0.10
2023-02-15T03:45:10.156Z,0.10
2023-02-15T03:47:42.764Z,0.10
2023-02-15T03:50:33.074Z,0.10
2023-02-15T03:53:04.622Z,0.00
2023-02-15T03:55:32.087Z,0.00
2023-02-15T03:58:17.580Z,-0.10
2023-02-15T04:01:15.358Z,0.00
2023-02-15T04:03:53.172Z,0.10
2023-02-15T04:06:20.255Z,0.00
2023-02-15T04:09:05.944Z,0.10
2023-02-15T04:11:32.755Z,0.10
2023-02-15T04:13:59.608Z,-0.10
2023-02-15T04:16:26.782Z,-0.20
2023-02-15T04:19:14.654Z,-0.10
2023-02-15T04:22:03.714Z,-0.20
2023-02-15T04:24:49.160Z,-0.10
2023-02-15T04:27:17.735Z,-0.20
2023-02-15T04:29:44.655Z,-0.40
2023-02-15T04:32:12.701Z,-0.30
2023-02-15T04:34:39.513Z,-0.30
2023-02-15T04:37:08.606Z,-0.30
2023-02-15T04:39:36.164Z,-0.30
2023-02-15T04:42:03.077Z,-0.30
2023-02-15T04:44:29.848Z,-0.40
2023-02-15T04:46:56.596Z,-0.40
2023-02-15T04:49:23.348Z,-0.50
2023-02-15T04:51:50.167Z,-0.40
2023-02-15T04:54:17.032Z,-0.50
2023-02-15T04:56:44.552Z,-0.40
2023-02-15T04:59:12.372Z,-0.50
2023-02-15T05:01:39.493Z,-0.50
2023-02-15T05:04:06.470Z,-0.40
2023-02-15T05:06:33.281Z,-0.50
2023-02-15T05:09:00.377Z,-0.50
2023-02-15T05:11:27.866Z,-0.50
2023-02-15T05:13:54.692Z,-0.50
2023-02-15T05:16:21.490Z,-0.50
2023-02-15T05:18:50.727Z,-0.50
2023-02-15T05:21:17.542Z,-0.60
2023-02-15T05:23:44.294Z,-0.60
2023-02-15T05:26:39.473Z,-0.60
2023-02-15T05:29:06.774Z,-0.50
2023-02-15T05:31:34.876Z,-0.60
2023-02-15T05:34:03.003Z,-0.50
2023-02-15T05:36:33.046Z,-0.50
2023-02-15T05:38:59.809Z,-0.60
2023-02-15T05:41:26.592Z,-0.60
2023-02-15T05:43:55.852Z,-0.60
2023-02-15T05:46:22.873Z,-0.60
2023-02-15T05:48:49.777Z,-0.50
2023-02-15T05:51:18.056Z,-0.60
2023-02-15T05:53:45.078Z,-0.50
2023-02-15T05:56:15.559Z,-0.60
2023-02-15T05:58:43.316Z,-0.60
2023-02-15T06:01:11.864Z,-0.50
2023-02-15T06:03:39.230Z,-0.50
2023-02-15T06:06:07.389Z,-0.60
2023-02-15T06:08:35.812Z,-0.60
2023-02-15T06:11:03.336Z,-0.60
2023-02-15T06:13:30.592Z,-0.60
2023-02-15T06:15:59.407Z,-0.60
2023-02-15T06:18:26.674Z,-0.50
2023-02-15T06:20:53.705Z,-0.60
2023-02-15T06:23:20.576Z,-0.50
2023-02-15T06:25:47.595Z,-0.60
2023-02-15T06:28:14.874Z,-0.70
2023-02-15T06:30:41.948Z,-0.60
2023-02-15T06:33:08.880Z,-0.70
2023-02-15T06:35:35.777Z,-0.70
2023-02-15T06:38:02.644Z,-0.70
2023-02-15T06:40:29.430Z,-0.60
2023-02-15T06:42:56.194Z,-0.70
2023-02-15T06:45:22.992Z,-0.70
2023-02-15T06:47:49.859Z,-0.60
2023-02-15T06:50:17.096Z,-0.60
2023-02-15T06:52:43.900Z,-0.60
2023-02-15T06:55:10.794Z,-0.60
2023-02-15T06:57:37.658Z,-0.60
2023-02-15T07:00:06.289Z,-0.50
2023-02-15T07:02:34.365Z,-0.50
2023-02-15T07:05:01.241Z,-0.50
2023-02-15T07:07:28.142Z,-0.50
2023-02-15T07:09:54.917Z,-0.50
2023-02-15T07:12:40.267Z,-0.40
2023-02-15T07:15:08.661Z,-0.40
2023-02-15T07:17:36.616Z,-0.40
2023-02-15T07:20:09.070Z,-0.40
2023-02-15T07:22:37.331Z,-0.40
2023-02-15T07:25:10.002Z,-0.40
2023-02-15T07:27:37.180Z,-0.30
2023-02-15T07:30:05.892Z,-0.30
2023-02-15T07:32:34.480Z,-0.20
2023-02-15T07:35:01.947Z,-0.20
2023-02-15T07:37:29.085Z,-0.10
2023-02-15T07:39:55.868Z,-0.10
2023-02-15T07:42:23.426Z,-0.10
2023-02-15T07:44:50.353Z,-0.10
2023-02-15T07:47:17.379Z,0.00
2023-02-15T07:49:44.254Z,0.00
2023-02-15T07:52:11.002Z,0.10
2023-02-15T07:54:37.821Z,0.10
2023-02-15T07:57:05.131Z,0.10
2023-02-15T07:59:32.483Z,0.20
2023-02-15T08:01:59.477Z,0.30
2023-02-15T08:04:26.389Z,0.40
2023-02-15T08:06:55.434Z,0.30
2023-02-15T08:09:22.821Z,0.30
2023-02-15T08:11:50.545Z,0.40
2023-02-15T08:14:19.898Z,0.50
2023-02-15T08:16:51.055Z,0.50
2023-02-15T08:19:30.448Z,0.50
2023-02-15T08:22:02.938Z,0.60
2023-02-15T08:24:35.507Z,0.60
2023-02-15T08:27:08.443Z,0.60
2023-02-15T08:29:37.313Z,0.80
2023-02-15T08:32:07.743Z,0.80
2023-02-15T08:34:37.452Z,0.80
2023-02-15T08:37:04.437Z,1.00
2023-02-15T08:39:31.382Z,0.90
2023-02-15T08:41:58.350Z,1.10
2023-02-15T08:44:26.126Z,1.20
2023-02-15T08:46:53.021Z,1.20
2023-02-15T08:49:25.146Z,1.20
2023-02-15T08:51:52.500Z,1.30
2023-02-15T08:54:23.003Z,1.30
2023-02-15T08:56:50.372Z,1.40
2023-02-15T08:59:19.588Z,1.50
2023-02-15T09:01:49.041Z,1.60
2023-02-15T09:04:18.150Z,1.70
2023-02-15T09:06:49.150Z,1.80
2023-02-15T09:09:20.858Z,1.80
2023-02-15T09:11:56.039Z,1.90
2023-02-15T09:14:28.852Z,2.00
2023-02-15T09:16:55.876Z,2.00
2023-02-15T09:19:29.507Z,2.10
2023-02-15T09:21:56.528Z,2.20
2023-02-15T09:24:24.563Z,2.30
2023-02-15T09:26:52.029Z,2.40
2023-02-15T09:29:20.627Z,2.50
2023-02-15T09:31:51.160Z,2.60
2023-02-15T09:34:24.344Z,2.80
2023-02-15T09:36:52.321Z,2.80
2023-02-15T09:39:27.838Z,2.90
2023-02-15T09:42:15.999Z,3.00
2023-02-15T09:45:20.009Z,3.00
2023-02-15T09:48:09.735Z,3.10
2023-02-15T09:50:50.055Z,3.40
2023-02-15T09:53:48.066Z,3.40
2023-02-15T09:56:30.271Z,3.40
2023-02-15T09:59:36.917Z,3.60
2023-02-15T10:02:37.020Z,3.50
2023-02-15T10:05:12.872Z,3.70
2023-02-15T10:07:39.821Z,3.80
2023-02-15T10:10:35.324Z,3.90
2023-02-15T10:13:12.481Z,3.90
2023-02-15T10:16:03.436Z,4.00
2023-02-15T10:18:33.419Z,4.20
2023-02-15T10:21:36.286Z,4.20
2023-02-15T10:24:12.493Z,4.40
2023-02-15T10:26:48.438Z,4.50
2023-02-15T10:29:48.890Z,4.50
2023-02-15T10:32:34.397Z,4.70
2023-02-15T10:35:44.855Z,4.90
2023-02-15T10:38:26.752Z,5.00
2023-02-15T10:41:10.744Z,5.00
2023-02-15T10:44:02.048Z,5.20
2023-02-15T10:46:48.328Z,5.20
2023-02-15T10:49:54.566Z,5.40
2023-02-15T10:52:31.578Z,5.60
2023-02-15T10:55:38.447Z,5.70
2023-02-15T10:58:27.502Z,5.70
2023-02-15T11:01:27.556Z,5.80
2023-02-15T11:04:07.667Z,6.00
2023-02-15T11:06:37.815Z,6.10
2023-02-15T11:09:19.391Z,6.20
2023-02-15T11:11:54.893Z,6.20
2023-02-15T11:14:47.310Z,6.30
2023-02-15T11:17:23.263Z,6.40
2023-02-15T11:19:50.557Z,6.40
2023-02-15T11:22:18.254Z,6.50
2023-02-15T11:24:48.520Z,6.70
2023-02-15T11:27:23.436Z,6.70
2023-02-15T11:30:11.743Z,6.70
2023-02-15T11:32:51.857Z,6.70
2023-02-15T11:35:29.527Z,6.80
2023-02-15T11:38:05.253Z,7.00
2023-02-15T11:40:38.429Z,7.00
2023-02-15T11:43:14.709Z,7.10
2023-02-15T11:45:44.740Z,7.30
2023-02-15T11:48:14.646Z,7.40
2023-02-15T11:50:43.465Z,7.50
2023-02-15T11:53:16.610Z,7.60
2023-02-15T11:55:45.456Z,7.70
2023-02-15T11:58:22.406Z,7.70
2023-02-15T12:00:52.987Z,7.70
2023-02-15T12:03:30.293Z,8.00
2023-02-15T12:06:04.597Z,8.00
2023-02-15T12:08:50.474Z,8.00
2023-02-15T12:11:23.552Z,8.00
2023-02-15T12:14:02.521Z,8.20
2023-02-15T12:16:33.154Z,8.20
2023-02-15T12:19:02.236Z,8.40
2023-02-15T12:21:40.769Z,8.60
2023-02-15T12:24:23.010Z,8.60
2023-02-15T12:27:14.840Z,8.70
2023-02-15T12:29:52.207Z,8.80
2023-02-15T12:32:27.742Z,8.90
2023-02-15T12:35:10.755Z,9.00
2023-02-15T12:37:39.957Z,9.00
2023-02-15T12:40:31.392Z,9.10
2023-02-15T12:42:59.376Z,9.30
2023-02-15T12:45:32.524Z,9.30
2023-02-15T12:48:22.230Z,9.40
2023-02-15T12:50:58.051Z,9.20
2023-02-15T12:53:42.940Z,9.30
2023-02-15T12:56:12.358Z,9.30
2023-02-15T12:58:45.063Z,9.40
2023-02-15T13:01:27.696Z,9.40
2023-02-15T13:04:14.092Z,9.30
2023-02-15T13:06:53.193Z,9.50
2023-02-15T13:09:33.948Z,9.60
2023-02-15T13:12:24.702Z,9.70
2023-02-15T13:14:55.994Z,9.60
2023-02-15T13:17:36.858Z,9.60
2023-02-15T13:20:17.746Z,9.70
2023-02-15T13:22:47.719Z,9.70
2023-02-15T13:25:26.841Z,9.80
2023-02-15T13:27:58.997Z,9.90
2023-02-15T13:30:39.352Z,9.90
2023-02-15T13:33:13.140Z,9.90
2023-02-15T13:36:02.675Z,10.00
2023-02-15T13:39:09.658Z,9.90
2023-02-15T13:41:54.478Z,10.10
2023-02-15T13:44:52.683Z,10.20
2023-02-15T13:47:57.300Z,10.30
2023-02-15T13:51:00.249Z,10.30
2023-02-15T13:54:00.396Z,10.30
2023-02-15T13:56:57.996Z,10.40
2023-02-15T13:59:33.615Z,10.40
2023-02-15T14:02:55.261Z,10.50
2023-02-15T14:05:49.680Z,10.50
2023-02-15T14:08:38.218Z,10.60
2023-02-15T14:11:19.743Z,10.50
2023-02-15T14:13:47.201Z,10.50
2023-02-15T14:17:05.696Z,10.60
2023-02-15T14:19:47.145Z,10.60
2023-02-15T14:22:29.029Z,10.60
2023-02-15T14:25:19.500Z,10.60
2023-02-15T14:28:05.819Z,10.60
2023-02-15T14:30:46.338Z,10.70
2023-02-15T14:33:16.626Z,10.70
2023-02-15T14:35:45.045Z,10.70
2023-02-15T14:38:53.472Z,10.70
2023-02-15T14:41:54.844Z,10.70
2023-02-15T14:44:34.888Z,10.70
2023-02-15T14:47:13.555Z,10.70
2023-02-15T14:49:41.499Z,10.70
2023-02-15T14:52:11.636Z,10.70
2023-02-15T14:54:38.884Z,10.60
2023-02-15T14:57:07.405Z,10.70
2023-02-15T14:59:58.340Z,10.60
2023-02-15T15:02:27.398Z,10.60
2023-02-15T15:05:08.259Z,10.50
2023-02-15T15:07:52.115Z,10.40
2023-02-15T15:10:19.143Z,10.40
2023-02-15T15:12:51.654Z,10.40
2023-02-15T15:15:28.453Z,10.50
2023-02-15T15:18:08.547Z,10.50
2023-02-15T15:20:40.830Z,10.40
2023-02-15T15:23:44.276Z,10.40
2023-02-15T15:26:29.912Z,10.30
2023-02-15T15:28:59.452Z,10.40
2023-02-15T15:31:34.506Z,10.40
2023-02-15T15:34:01.454Z,10.30
2023-02-15T15:36:37.885Z,10.30
2023-02-15T15:39:42.929Z,10.20
2023-02-15T15:42:21.968Z,10.00
2023-02-15T15:45:14.847Z,10.10
2023-02-15T15:48:06.628Z,10.00
2023-02-15T15:50:34.529Z,9.90
2023-02-15T15:53:03.436Z,9.80
2023-02-15T15:55:33.096Z,9.80
2023-02-15T15:58:06.111Z,9.80
2023-02-15T16:00:51.083Z,9.50
2023-02-15T16:03:24.615Z,9.40
2023-02-15T16:05:59.551Z,9.00
2023-02-15T16:08:39.842Z,8.90
2023-02-15T16:11:18.991Z,8.70
2023-02-15T16:13:46.292Z,8.60
2023-02-15T16:16:15.387Z,8.50
2023-02-15T16:18:45.906Z,8.40
2023-02-15T16:21:24.100Z,8.30
2023-02-15T16:24:16.937Z,8.30
2023-02-15T16:27:12.236Z,8.30
2023-02-15T16:29:39.532Z,8.50
2023-02-15T16:32:21.585Z,8.60
2023-02-15T16:35:01.884Z,8.50
2023-02-15T16:37:36.208Z,8.30
2023-02-15T16:40:03.576Z,8.10
2023-02-15T16:42:30.442Z,7.90
2023-02-15T16:45:07.115Z,7.70
2023-02-15T16:47:40.057Z,7.70
2023-02-15T16:50:23.201Z,7.70
2023-02-15T16:52:50.631Z,7.70
2023-02-15T16:55:26.028Z,7.50
2023-02-15T16:57:58.740Z,7.30
2023-02-15T17:00:27.910Z,7.10
2023-02-15T17:03:00.893Z,6.90
2023-02-15T17:05:43.814Z,6.80
2023-02-15T17:08:21.101Z,6.70
2023-02-15T17:11:06.059Z,6.60
2023-02-15T17:13:33.043Z,6.50
2023-02-15T17:16:00.624Z,6.60
2023-02-15T17:18:40.998Z,6.70
2023-02-15T17:21:14.497Z,6.50
2023-02-15T17:23:43.879Z,6.50
2023-02-15T17:26:25.784Z,6.50
2023-02-15T17:29:11.856Z,6.50
2023-02-15T17:31:39.641Z,6.40
2023-02-15T17:34:06.891Z,6.50
2023-02-15T17:36:34.140Z,6.50
2023-02-15T17:39:08.098Z,6.50
2023-02-15T17:41:38.479Z,6.40
2023-02-15T17:44:05.486Z,6.60
2023-02-15T17:46:38.003Z,6.70
2023-02-15T17:49:05.610Z,6.60
2023-02-15T17:51:35.587Z,6.50
2023-02-15T17:54:21.991Z,6.40
2023-02-15T17:56:49.504Z,6.20
2023-02-15T17:59:16.386Z,6.20
2023-02-15T18:02:06.239Z,6.00
2023-02-15T18:04:56.274Z,6.00
2023-02-15T18:07:41.813Z,6.10
2023-02-15T18:10:36.944Z,6.10
2023-02-15T18:13:04.443Z,6.20
2023-02-15T18:15:31.584Z,5.90
2023-02-15T18:17:58.571Z,5.90
2023-02-15T18:20:34.242Z,5.80
2023-02-15T18:23:02.240Z,5.70
2023-02-15T18:25:29.261Z,5.90
2023-02-15T18:27:57.931Z,5.80
2023-02-15T18:30:28.112Z,5.80
2023-02-15T18:32:57.631Z,5.80
2023-02-15T18:35:28.822Z,5.80
2023-02-15T18:37:56.368Z,5.70
2023-02-15T18:40:26.851Z,5.70
2023-02-15T18:42:54.557Z,5.60
2023-02-15T18:45:32.574Z,5.60
2023-02-15T18:47:59.638Z,5.40
2023-02-15T18:50:31.012Z,5.30
2023-02-15T18:52:58.252Z,5.30
2023-02-15T18:55:28.073Z,5.30
2023-02-15T18:57:57.337Z,5.20
2023-02-15T19:00:28.380Z,5.10
2023-02-15T19:02:56.594Z,5.20
2023-02-15T19:05:24.797Z,5.20
2023-02-15T19:07:52.127Z,5.20
2023-02-15T19:10:22.434Z,5.10
2023-02-15T19:12:50.293Z,5.00
2023-02-15T19:15:22.457Z,4.80
2023-02-15T19:17:50.160Z,4.80
2023-02-15T19:20:19.755Z,4.70
2023-02-15T19:22:51.784Z,4.70
2023-02-15T19:25:25.534Z,4.70
2023-02-15T19:27:54.081Z,4.80
2023-02-15T19:30:28.707Z,4.80
2023-02-15T19:32:57.019Z,4.60
2023-02-15T19:35:26.891Z,4.70
2023-02-15T19:37:56.814Z,4.50
2023-02-15T19:40:26.001Z,4.60
2023-02-15T19:42:53.308Z,4.50
2023-02-15T19:45:23.769Z,4.40
2023-02-15T19:47:52.848Z,4.50
2023-02-15T19:50:22.772Z,4.50
2023-02-15T19:52:53.819Z,4.30
2023-02-15T19:55:27.923Z,4.30
2023-02-15T19:57:56.983Z,4.40
2023-02-15T20:00:27.138Z,4.40
2023-02-15T20:02:59.405Z,4.20
2023-02-15T20:05:29.316Z,4.30
2023-02-15T20:07:58.239Z,4.20
2023-02-15T20:10:30.185Z,4.20
2023-02-15T20:12:58.287Z,4.30
2023-02-15T20:15:28.419Z,4.30
2023-02-15T20:18:00.342Z,4.20
2023-02-15T20:20:34.340Z,4.10
2023-02-15T20:23:02.224Z,4.10
2023-02-15T20:25:31.867Z,4.20
2023-02-15T20:28:01.839Z,4.10
2023-02-15T20:30:32.016Z,4.00
2023-02-15T20:32:59.277Z,4.00
2023-02-15T20:35:31.936Z,4.10
2023-02-15T20:38:00.650Z,4.00
2023-02-15T20:40:31.113Z,4.20
2023-02-15T20:42:58.412Z,4.30
2023-02-15T20:45:28.882Z,4.30
2023-02-15T20:47:57.084Z,4.30
2023-02-15T20:50:30.257Z,4.20
2023-02-15T20:52:59.690Z,4.10
2023-02-15T20:55:32.716Z,4.00
2023-02-15T20:57:59.968Z,3.90
2023-02-15T21:00:29.784Z,3.90
2023-02-15T21:03:01.253Z,3.90
2023-02-15T21:05:31.382Z,3.80
2023-02-15T21:08:01.796Z,3.80
2023-02-15T21:10:31.948Z,3.80
2023-02-15T21:13:01.170Z,3.80
2023-02-15T21:15:39.728Z,3.70
2023-02-15T21:18:14.501Z,3.70
2023-02-15T21:20:46.603Z,3.60
2023-02-15T21:23:16.919Z,3.50
2023-02-15T21:25:44.769Z,3.50
2023-02-15T21:28:18.928Z,3.60
2023-02-15T21:30:46.448Z,3.60
2023-02-15T21:33:13.738Z,3.60
2023-02-15T21:35:41.198Z,3.70
2023-02-15T21:38:13.427Z,3.60
2023-02-15T21:40:41.176Z,3.70
2023-02-15T21:43:43.862Z,3.70
2023-02-15T21:46:38.913Z,3.60
2023-02-15T21:49:12.452Z,3.70
2023-02-15T21:51:58.638Z,3.90
2023-02-15T21:54:27.706Z,4.10
2023-02-15T21:56:55.673Z,4.00
2023-02-15T21:59:24.588Z,3.90
2023-02-15T22:01:53.198Z,3.90
2023-02-15T22:04:28.682Z,3.80
2023-02-15T22:06:59.203Z,3.70
2023-02-15T22:09:29.073Z,3.70
2023-02-15T22:11:58.414Z,3.60
2023-02-15T22:14:36.453Z,3.50
2023-02-15T22:17:10.272Z,3.30
2023-02-15T22:19:40.430Z,3.30
2023-02-15T22:22:07.311Z,3.30
2023-02-15T22:24:37.024Z,3.30
2023-02-15T22:27:05.417Z,3.20
2023-02-15T22:29:33.637Z,3.20
2023-02-15T22:32:09.918Z,3.20
2023-02-15T22:34:37.050Z,3.10
2023-02-15T22:37:04.652Z,3.10
2023-02-15T22:39:32.103Z,3.20
2023-02-15T22:42:02.559Z,3.10
2023-02-15T22:44:33.530Z,3.20
2023-02-15T22:47:05.022Z,3.40
2023-02-15T22:49:32.108Z,3.50
2023-02-15T22:51:59.280Z,3.50
2023-02-15T22:54:26.480Z,3.50
2023-02-15T22:56:56.938Z,3.60
2023-02-15T22:59:34.484Z,3.70
2023-02-15T23:02:06.534Z,3.60
2023-02-15T23:04:33.973Z,3.60
2023-02-15T23:07:01.085Z,3.60
2023-02-15T23:09:37.064Z,3.50
2023-02-15T23:12:13.764Z,3.50
2023-02-15T23:14:40.856Z,3.50
2023-02-15T23:17:12.314Z,3.50
2023-02-15T23:19:39.597Z,3.50
2023-02-15T23:22:22.071Z,3.60
2023-02-15T23:24:54.805Z,3.60
2023-02-15T23:27:40.390Z,3.70
2023-02-15T23:30:15.382Z,3.70
2023-02-15T23:32:45.694Z,3.80
2023-02-15T23:35:27.374Z,3.80
2023-02-15T23:37:54.515Z,3.90
2023-02-15T23:40:53.211Z,4.00
2023-02-15T23:43:25.455Z,4.10
2023-02-15T23:45:52.890Z,4.20
2023-02-15T23:48:30.387Z,4.20
2023-02-15T23:50:58.775Z,4.30
2023-02-15T23:53:26.130Z,4.30
2023-02-15T23:55:53.949Z,4.60
2023-02-15T23:58:30.184Z,4.70
